sensor_id;sensor_type;location;lat;lon;timestamp;pressure;altitude;pressure_sealevel;temperature;humidity
32642;BME280;19323;56.072;9.698;2022-10-04T00:07:15;101301.88;;;28.29;37.96
32642;BME280;19323;56.072;9.698;2022-10-04T00:09:53;101296.00;;;28.25;38.36
32642;BME280;19323;56.072;9.698;2022-10-04T00:12:27;101299.00;;;28.22;38.04
32642;BME280;19323;56.072;9.698;2022-10-04T00:14:59;101304.56;;;28.21;38.21
32642;BME280;19323;56.072;9.698;2022-10-04T00:17:28;101297.63;;;28.18;38.07
32642;BME280;19323;56.072;9.698;2022-10-04T00:19:57;101298.81;;;28.15;38.05
32642;BME280;19323;56.072;9.698;2022-10-04T00:22:27;101301.50;;;28.15;38.09
32642;BME280;19323;56.072;9.698;2022-10-04T00:27:27;101302.34;;;28.16;38.30
32642;BME280;19323;56.072;9.698;2022-10-04T00:40:25;101295.97;;;28.17;38.32
32642;BME280;19323;56.072;9.698;2022-10-04T00:45:37;101286.03;;;28.18;37.85
32642;BME280;19323;56.072;9.698;2022-10-04T00:48:27;101298.69;;;28.25;38.00
32642;BME280;19323;56.072;9.698;2022-10-04T00:51:04;101293.09;;;28.19;38.03
32642;BME280;19323;56.072;9.698;2022-10-04T00:56:31;101283.03;;;28.21;37.78
32642;BME280;19323;56.072;9.698;2022-10-04T01:01:39;101283.97;;;28.11;38.15
32642;BME280;19323;56.072;9.698;2022-10-04T01:04:34;101282.69;;;28.24;38.04
32642;BME280;19323;56.072;9.698;2022-10-04T01:07:04;101273.38;;;28.10;38.26
32642;BME280;19323;56.072;9.698;2022-10-04T01:09:33;101276.56;;;28.13;37.92
32642;BME280;19323;56.072;9.698;2022-10-04T01:12:10;101277.94;;;28.18;37.70
32642;BME280;19323;56.072;9.698;2022-10-04T01:17:17;101265.31;;;28.10;37.87
32642;BME280;19323;56.072;9.698;2022-10-04T01:19:50;101271.56;;;28.19;37.73
32642;BME280;19323;56.072;9.698;2022-10-04T01:22:35;101260.59;;;28.20;37.91
32642;BME280;19323;56.072;9.698;2022-10-04T01:25:03;101259.06;;;28.09;38.09
32642;BME280;19323;56.072;9.698;2022-10-04T01:27:49;101226.06;;;27.99;37.85
32642;BME280;19323;56.072;9.698;2022-10-04T01:30:17;101249.31;;;28.08;37.60
32642;BME280;19323;56.072;9.698;2022-10-04T01:32:45;101249.63;;;28.05;38.22
32642;BME280;19323;56.072;9.698;2022-10-04T01:35:12;101259.75;;;28.11;38.04
32642;BME280;19323;56.072;9.698;2022-10-04T01:37:40;101255.00;;;28.05;38.09
32642;BME280;19323;56.072;9.698;2022-10-04T01:40:08;101255.38;;;28.10;38.11
32642;BME280;19323;56.072;9.698;2022-10-04T01:42:41;101255.72;;;28.15;37.96
32642;BME280;19323;56.072;9.698;2022-10-04T01:47:55;101248.00;;;28.21;37.96
32642;BME280;19323;56.072;9.698;2022-10-04T01:50:30;101236.53;;;28.10;38.16
32642;BME280;19323;56.072;9.698;2022-10-04T01:56:29;101243.75;;;28.18;37.73
32642;BME280;19323;56.072;9.698;2022-10-04T01:58:57;101245.59;;;28.09;37.93
32642;BME280;19323;56.072;9.698;2022-10-04T02:01:38;101248.78;;;28.05;38.00
32642;BME280;19323;56.072;9.698;2022-10-04T02:04:28;101234.00;;;28.17;37.91
32642;BME280;19323;56.072;9.698;2022-10-04T02:06:58;101225.91;;;28.09;38.18
32642;BME280;19323;56.072;9.698;2022-10-04T02:09:28;101220.38;;;28.10;37.93
32642;BME280;19323;56.072;9.698;2022-10-04T02:12:03;101205.19;;;28.01;37.87
32642;BME280;19323;56.072;9.698;2022-10-04T02:14:33;101221.53;;;28.08;37.70
32642;BME280;19323;56.072;9.698;2022-10-04T02:17:05;101210.59;;;28.09;37.79
32642;BME280;19323;56.072;9.698;2022-10-04T02:19:38;101210.94;;;28.06;37.81
32642;BME280;19323;56.072;9.698;2022-10-04T02:22:08;101218.31;;;28.04;38.09
32642;BME280;19323;56.072;9.698;2022-10-04T02:24:38;101209.91;;;28.07;37.75
32642;BME280;19323;56.072;9.698;2022-10-04T02:27:06;101205.88;;;28.03;38.02
32642;BME280;19323;56.072;9.698;2022-10-04T02:29:32;101176.91;;;27.89;38.00
32642;BME280;19323;56.072;9.698;2022-10-04T02:31:59;101205.88;;;28.03;37.84
32642;BME280;19323;56.072;9.698;2022-10-04T02:34:54;101197.81;;;28.03;37.83
32642;BME280;19323;56.072;9.698;2022-10-04T02:37:26;101189.38;;;28.06;37.71
32642;BME280;19323;56.072;9.698;2022-10-04T02:40:12;101195.78;;;28.13;37.63
32642;BME280;19323;56.072;9.698;2022-10-04T02:42:55;101193.28;;;28.12;37.92
32642;BME280;19323;56.072;9.698;2022-10-04T02:45:40;101198.81;;;28.10;37.66
32642;BME280;19323;56.072;9.698;2022-10-04T02:48:27;101177.44;;;28.09;37.81
32642;BME280;19323;56.072;9.698;2022-10-04T02:51:01;101188.38;;;28.07;38.09
32642;BME280;19323;56.072;9.698;2022-10-04T02:53:47;101186.03;;;28.12;37.78
32642;BME280;19323;56.072;9.698;2022-10-04T02:56:16;101176.06;;;27.97;38.17
32642;BME280;19323;56.072;9.698;2022-10-04T02:58:44;101180.97;;;28.01;38.06
32642;BME280;19323;56.072;9.698;2022-10-04T03:01:26;101172.19;;;28.07;38.10
32642;BME280;19323;56.072;9.698;2022-10-04T03:03:54;101168.50;;;28.00;37.92
32642;BME280;19323;56.072;9.698;2022-10-04T03:06:23;101174.56;;;28.02;38.01
32642;BME280;19323;56.072;9.698;2022-10-04T03:08:59;101169.84;;;28.04;37.91
32642;BME280;19323;56.072;9.698;2022-10-04T03:11:29;101178.63;;;28.06;37.92
32642;BME280;19323;56.072;9.698;2022-10-04T03:13:58;101175.59;;;28.01;37.97
32642;BME280;19323;56.072;9.698;2022-10-04T03:16:26;101166.16;;;27.97;37.86
32642;BME280;19323;56.072;9.698;2022-10-04T03:18:59;101168.50;;;28.00;37.92
32642;BME280;19323;56.072;9.698;2022-10-04T03:21:26;101160.41;;;28.00;37.67
32642;BME280;19323;56.072;9.698;2022-10-04T03:23:52;101164.97;;;28.00;38.14
32642;BME280;19323;56.072;9.698;2022-10-04T03:26:33;101163.81;;;28.10;37.54
32642;BME280;19323;56.072;9.698;2022-10-04T03:29:05;101157.72;;;28.00;38.06
32642;BME280;19323;56.072;9.698;2022-10-04T03:31:39;101158.06;;;28.05;37.79
32642;BME280;19323;56.072;9.698;2022-10-04T03:36:45;101137.38;;;27.98;38.15
32642;BME280;19323;56.072;9.698;2022-10-04T03:39:32;101130.81;;;28.08;37.56
32642;BME280;19323;56.072;9.698;2022-10-04T03:42:06;101129.31;;;28.06;37.87
32642;BME280;19323;56.072;9.698;2022-10-04T03:44:33;101121.22;;;27.98;38.27
32642;BME280;19323;56.072;9.698;2022-10-04T03:47:00;101126.59;;;27.98;37.81
32642;BME280;19323;56.072;9.698;2022-10-04T03:49:31;101129.47;;;28.04;37.95
32642;BME280;19323;56.072;9.698;2022-10-04T03:52:08;101134.69;;;27.98;38.15
32642;BME280;19323;56.072;9.698;2022-10-04T03:54:41;101135.03;;;27.94;37.80
32642;BME280;19323;56.072;9.698;2022-10-04T03:57:15;101138.56;;;28.03;37.52
32642;BME280;19323;56.072;9.698;2022-10-04T03:59:56;101145.59;;;27.96;38.07
32642;BME280;19323;56.072;9.698;2022-10-04T04:05:15;101150.31;;;28.02;38.02
32642;BME280;19323;56.072;9.698;2022-10-04T04:10:26;101137.53;;;28.04;37.99
32642;BME280;19323;56.072;9.698;2022-10-04T04:12:57;101137.88;;;28.01;37.84
32642;BME280;19323;56.072;9.698;2022-10-04T04:15:31;101137.53;;;28.04;37.97
32642;BME280;19323;56.072;9.698;2022-10-04T04:18:05;101128.44;;;28.05;37.90
32642;BME280;19323;56.072;9.698;2022-10-04T04:20:37;101132.81;;;27.98;38.09
32642;BME280;19323;56.072;9.698;2022-10-04T04:25:53;101112.28;;;28.05;38.14
32642;BME280;19323;56.072;9.698;2022-10-04T04:28:37;101099.16;;;28.02;37.82
32642;BME280;19323;56.072;9.698;2022-10-04T04:31:17;101110.47;;;28.06;38.08
32642;BME280;19323;56.072;9.698;2022-10-04T04:33:52;101111.81;;;28.02;37.77
32642;BME280;19323;56.072;9.698;2022-10-04T04:36:30;101112.31;;;27.97;38.23
32642;BME280;19323;56.072;9.698;2022-10-04T04:39:16;101106.06;;;28.05;37.52
32642;BME280;19323;56.072;9.698;2022-10-04T04:42:16;101096.47;;;28.02;37.67
32642;BME280;19323;56.072;9.698;2022-10-04T04:44:50;101100.34;;;28.00;38.38
32642;BME280;19323;56.072;9.698;2022-10-04T04:47:28;101099.00;;;28.04;38.21
32642;BME280;19323;56.072;9.698;2022-10-04T04:49:56;101092.78;;;27.95;38.42
32642;BME280;19323;56.072;9.698;2022-10-04T04:52:28;101074.94;;;27.94;38.50
32642;BME280;19323;56.072;9.698;2022-10-04T04:54:55;101059.78;;;27.93;38.33
32642;BME280;19323;56.072;9.698;2022-10-04T04:57:22;101058.97;;;27.92;38.03
32642;BME280;19323;56.072;9.698;2022-10-04T04:59:53;101061.81;;;27.99;38.18
32642;BME280;19323;56.072;9.698;2022-10-04T05:02:35;101059.63;;;28.03;37.90
32642;BME280;19323;56.072;9.698;2022-10-04T05:05:34;101072.94;;;28.04;37.87
32642;BME280;19323;56.072;9.698;2022-10-04T05:10:51;101080.84;;;27.98;38.35
32642;BME280;19323;56.072;9.698;2022-10-04T05:13:38;101070.75;;;28.00;38.02
32642;BME280;19323;56.072;9.698;2022-10-04T05:19:05;101078.50;;;27.94;38.34
32642;BME280;19323;56.072;9.698;2022-10-04T05:21:34;101060.47;;;27.87;38.47
32642;BME280;19323;56.072;9.698;2022-10-04T05:24:13;101066.53;;;27.97;38.15
32642;BME280;19323;56.072;9.698;2022-10-04T05:26:48;101063.16;;;27.95;38.08
32642;BME280;19323;56.072;9.698;2022-10-04T05:29:21;101065.03;;;27.94;38.57
32642;BME280;19323;56.072;9.698;2022-10-04T05:32:14;101060.81;;;28.00;37.93
32642;BME280;19323;56.072;9.698;2022-10-04T05:34:48;101054.09;;;27.88;38.37
32642;BME280;19323;56.072;9.698;2022-10-04T05:37:24;101057.78;;;27.95;38.22
32642;BME280;19323;56.072;9.698;2022-10-04T05:42:24;101066.19;;;27.92;38.43
32642;BME280;19323;56.072;9.698;2022-10-04T05:44:56;101059.47;;;27.88;38.42
32642;BME280;19323;56.072;9.698;2022-10-04T05:47:27;101066.69;;;27.96;38.09
32642;BME280;19323;56.072;9.698;2022-10-04T05:49:57;101064.50;;;27.91;38.55
32642;BME280;19323;56.072;9.698;2022-10-04T05:52:37;101056.09;;;27.94;38.34
32642;BME280;19323;56.072;9.698;2022-10-04T06:06:21;101067.53;;;27.96;38.21
32642;BME280;19323;56.072;9.698;2022-10-04T06:12:16;101063.16;;;27.95;38.08
32642;BME280;19323;56.072;9.698;2022-10-04T06:17:43;101055.41;;;27.92;38.26
32642;BME280;19323;56.072;9.698;2022-10-04T06:23:11;101051.03;;;27.91;38.37
32642;BME280;19323;56.072;9.698;2022-10-04T06:25:49;101052.03;;;27.90;38.13
32642;BME280;19323;56.072;9.698;2022-10-04T06:28:30;101054.41;;;27.93;38.36
32642;BME280;19323;56.072;9.698;2022-10-04T06:36:40;101048.19;;;27.92;38.35
32642;BME280;19323;56.072;9.698;2022-10-04T06:42:39;101037.69;;;27.81;38.64
32642;BME280;19323;56.072;9.698;2022-10-04T06:45:15;101041.13;;;27.91;38.54
32642;BME280;19323;56.072;9.698;2022-10-04T06:59:17;101050.38;;;27.89;38.60
32642;BME280;19323;56.072;9.698;2022-10-04T07:02:00;101053.41;;;27.86;38.64
32642;BME280;19323;56.072;9.698;2022-10-04T07:04:43;101047.34;;;27.92;38.35
32642;BME280;19323;56.072;9.698;2022-10-04T07:07:34;101050.00;;;27.84;38.90
32642;BME280;19323;56.072;9.698;2022-10-04T07:13:31;101038.56;;;27.90;38.40
32642;BME280;19323;56.072;9.698;2022-10-04T07:16:05;101045.78;;;27.81;38.73
32642;BME280;19323;56.072;9.698;2022-10-04T07:21:09;101041.28;;;27.90;38.14
32642;BME280;19323;56.072;9.698;2022-10-04T07:23:53;101049.03;;;27.93;38.59
32642;BME280;19323;56.072;9.698;2022-10-04T07:26:26;101039.75;;;27.87;38.75
32642;BME280;19323;56.072;9.698;2022-10-04T07:28:57;101043.47;;;27.86;38.81
32642;BME280;19323;56.072;9.698;2022-10-04T07:31:45;101041.25;;;27.82;38.46
32642;BME280;19323;56.072;9.698;2022-10-04T07:34:22;101042.94;;;27.83;38.40
32642;BME280;19323;56.072;9.698;2022-10-04T07:36:53;101050.00;;;27.84;38.62
32642;BME280;19323;56.072;9.698;2022-10-04T07:39:42;101056.94;;;27.94;38.17
32642;BME280;19323;56.072;9.698;2022-10-04T07:42:20;101051.88;;;27.91;38.52
32642;BME280;19323;56.072;9.698;2022-10-04T07:45:10;101050.69;;;27.94;38.10
32642;BME280;19323;56.072;9.698;2022-10-04T07:47:37;101037.69;;;27.81;38.61
32642;BME280;19323;56.072;9.698;2022-10-04T07:50:29;101038.94;;;27.95;38.19
32642;BME280;19323;56.072;9.698;2022-10-04T07:53:11;101040.63;;;27.88;38.77
32642;BME280;19323;56.072;9.698;2022-10-04T07:56:01;101047.00;;;27.95;38.16
32642;BME280;19323;56.072;9.698;2022-10-04T08:02:13;101043.09;;;27.81;38.43
32642;BME280;19323;56.072;9.698;2022-10-04T08:16:35;101053.06;;;27.89;38.75
32642;BME280;19323;56.072;9.698;2022-10-04T08:21:59;101043.66;;;27.93;38.53
32642;BME280;19323;56.072;9.698;2022-10-04T08:25:19;101034.91;;;27.91;38.61
32642;BME280;19323;56.072;9.698;2022-10-04T08:29:59;101039.94;;;27.94;38.56
32642;BME280;19323;56.072;9.698;2022-10-04T08:35:34;101038.94;;;27.95;38.14
32642;BME280;19323;56.072;9.698;2022-10-04T08:38:31;101029.84;;;27.96;38.19
32642;BME280;19323;56.072;9.698;2022-10-04T08:52:19;101026.66;;;27.92;38.26
32642;BME280;19323;56.072;9.698;2022-10-04T09:03:35;101018.75;;;27.99;38.19
32642;BME280;19323;56.072;9.698;2022-10-04T09:12:32;101007.97;;;27.99;38.38
32642;BME280;19323;56.072;9.698;2022-10-04T09:15:19;101005.97;;;28.01;38.02
32642;BME280;19323;56.072;9.698;2022-10-04T09:17:58;101007.13;;;27.99;38.37
32642;BME280;19323;56.072;9.698;2022-10-04T09:35:07;101013.69;;;28.04;38.05
32642;BME280;19323;56.072;9.698;2022-10-04T09:48:50;101009.66;;;28.00;38.44
32642;BME280;19323;56.072;9.698;2022-10-04T09:54:28;101002.75;;;28.06;37.98
32642;BME280;19323;56.072;9.698;2022-10-04T09:57:40;101005.09;;;28.09;38.00
32642;BME280;19323;56.072;9.698;2022-10-04T10:00:29;101014.88;;;28.02;38.14
32642;BME280;19323;56.072;9.698;2022-10-04T10:09:05;101008.47;;;28.11;38.34
32642;BME280;19323;56.072;9.698;2022-10-04T10:11:58;101005.78;;;28.11;38.02
32642;BME280;19323;56.072;9.698;2022-10-04T10:28:46;100996.03;;;28.02;38.41
32642;BME280;19323;56.072;9.698;2022-10-04T10:39:59;100984.53;;;28.16;38.47
32642;BME280;19323;56.072;9.698;2022-10-04T10:42:46;100977.50;;;28.15;38.22
32642;BME280;19323;56.072;9.698;2022-10-04T10:45:39;100978.31;;;28.15;38.60
32642;BME280;19323;56.072;9.698;2022-10-04T10:48:21;100976.16;;;28.11;38.25
32642;BME280;19323;56.072;9.698;2022-10-04T10:51:17;100985.41;;;28.17;38.15
32642;BME280;19323;56.072;9.698;2022-10-04T10:54:07;100980.69;;;28.10;38.23
32642;BME280;19323;56.072;9.698;2022-10-04T11:06:12;100957.31;;;28.11;38.47
32642;BME280;19323;56.072;9.698;2022-10-04T11:17:16;100958.13;;;28.11;38.40
32642;BME280;19323;56.072;9.698;2022-10-04T11:20:09;100959.16;;;28.19;38.29
32642;BME280;19323;56.072;9.698;2022-10-04T11:28:56;100958.13;;;28.20;38.00
32642;BME280;19323;56.072;9.698;2022-10-04T11:50:36;100910.16;;;28.23;38.20
32642;BME280;19323;56.072;9.698;2022-10-04T11:53:53;100905.97;;;28.21;37.91
32642;BME280;19323;56.072;9.698;2022-10-04T11:56:38;100902.25;;;28.22;38.01
32642;BME280;19323;56.072;9.698;2022-10-04T11:59:48;100904.56;;;28.25;38.09
32642;BME280;19323;56.072;9.698;2022-10-04T12:06:02;100894.81;;;28.24;37.93
32642;BME280;19323;56.072;9.698;2022-10-04T12:17:07;100890.78;;;28.20;38.22
32642;BME280;19323;56.072;9.698;2022-10-04T12:19:56;100883.22;;;28.23;37.93
32642;BME280;19323;56.072;9.698;2022-10-04T12:22:43;100890.78;;;28.20;37.84
32642;BME280;19323;56.072;9.698;2022-10-04T12:28:39;100892.81;;;28.26;37.93
32642;BME280;19323;56.072;9.698;2022-10-04T12:31:19;100879.03;;;28.21;37.78
32642;BME280;19323;56.072;9.698;2022-10-04T12:33:57;100873.47;;;28.14;38.03
32642;BME280;19323;56.072;9.698;2022-10-04T12:36:41;100881.19;;;28.25;38.08
32642;BME280;19323;56.072;9.698;2022-10-04T12:39:25;100868.91;;;28.23;37.94
32642;BME280;19323;56.072;9.698;2022-10-04T12:50:28;100872.91;;;28.27;37.77
32642;BME280;19323;56.072;9.698;2022-10-04T12:53:27;100858.78;;;28.25;38.02
32642;BME280;19323;56.072;9.698;2022-10-04T12:56:13;100863.34;;;28.24;37.69
32642;BME280;19323;56.072;9.698;2022-10-04T12:59:15;100853.59;;;28.23;37.87
32642;BME280;19323;56.072;9.698;2022-10-04T13:04:48;100855.94;;;28.26;37.98
32642;BME280;19323;56.072;9.698;2022-10-04T13:10:46;100842.28;;;28.28;37.70
32642;BME280;19323;56.072;9.698;2022-10-04T13:16:53;100843.97;;;28.29;38.09
32642;BME280;19323;56.072;9.698;2022-10-04T13:19:31;100834.22;;;28.28;37.74
32642;BME280;19323;56.072;9.698;2022-10-04T13:25:35;100830.81;;;28.34;37.65
32642;BME280;19323;56.072;9.698;2022-10-04T13:28:33;100835.19;;;28.35;37.70
32642;BME280;19323;56.072;9.698;2022-10-04T13:31:12;100836.53;;;28.31;38.03
32642;BME280;19323;56.072;9.698;2022-10-04T13:34:12;100842.06;;;28.38;38.15
32642;BME280;19323;56.072;9.698;2022-10-04T13:48:29;100840.88;;;28.40;37.57
32642;BME280;19323;56.072;9.698;2022-10-04T13:51:23;100837.84;;;28.43;38.06
32642;BME280;19323;56.072;9.698;2022-10-04T13:53:55;100823.75;;;28.33;38.17
32642;BME280;19323;56.072;9.698;2022-10-04T14:14:07;100806.88;;;28.39;38.00
32642;BME280;19323;56.072;9.698;2022-10-04T14:16:49;100811.25;;;28.40;37.90
32642;BME280;19323;56.072;9.698;2022-10-04T14:22:22;100820.31;;;28.47;37.84
32642;BME280;19323;56.072;9.698;2022-10-04T14:30:56;100810.53;;;28.46;37.81
32642;BME280;19323;56.072;9.698;2022-10-04T14:36:39;100797.91;;;28.47;37.90
32642;BME280;19323;56.072;9.698;2022-10-04T14:39:23;100793.03;;;28.42;38.24
32642;BME280;19323;56.072;9.698;2022-10-04T15:11:48;100727.41;;;28.43;39.17
32642;BME280;19323;56.072;9.698;2022-10-04T15:14:43;100730.75;;;28.45;40.03
32642;BME280;19323;56.072;9.698;2022-10-04T15:17:34;100731.25;;;28.49;39.90
32642;BME280;19323;56.072;9.698;2022-10-04T15:20:23;100731.72;;;28.52;39.71
32642;BME280;19323;56.072;9.698;2022-10-04T15:22:54;100734.97;;;28.48;40.35
32642;BME280;19323;56.072;9.698;2022-10-04T15:28:27;100745.22;;;28.52;40.29
32642;BME280;19323;56.072;9.698;2022-10-04T15:34:05;100746.91;;;28.53;40.62
32642;BME280;19323;56.072;9.698;2022-10-04T15:42:12;100750.22;;;28.55;41.31
32642;BME280;19323;56.072;9.698;2022-10-04T15:44:45;100748.94;;;28.51;42.19
32642;BME280;19323;56.072;9.698;2022-10-04T15:47:27;100744.84;;;28.55;42.58
32642;BME280;19323;56.072;9.698;2022-10-04T15:53:21;100746.53;;;28.57;41.62
32642;BME280;19323;56.072;9.698;2022-10-04T16:01:43;100738.28;;;28.58;41.42
32642;BME280;19323;56.072;9.698;2022-10-04T16:04:24;100742.50;;;28.52;41.79
32642;BME280;19323;56.072;9.698;2022-10-04T16:07:07;100737.28;;;28.51;41.50
32642;BME280;19323;56.072;9.698;2022-10-04T16:09:46;100731.38;;;28.55;41.44
32642;BME280;19323;56.072;9.698;2022-10-04T16:17:40;100722.09;;;28.58;41.47
32642;BME280;19323;56.072;9.698;2022-10-04T16:20:27;100719.22;;;28.60;41.22
32642;BME280;19323;56.072;9.698;2022-10-04T16:23:34;100723.75;;;28.59;41.01
32642;BME280;19323;56.072;9.698;2022-10-04T16:26:05;100719.78;;;28.47;41.71
32642;BME280;19323;56.072;9.698;2022-10-04T16:31:44;100724.69;;;28.51;41.68
32642;BME280;19323;56.072;9.698;2022-10-04T16:36:49;100721.63;;;28.46;42.07
32642;BME280;19323;56.072;9.698;2022-10-04T16:42:27;100735.09;;;28.54;41.97
32642;BME280;19323;56.072;9.698;2022-10-04T16:45:31;100724.81;;;28.58;41.49
32642;BME280;19323;56.072;9.698;2022-10-04T16:48:28;100722.94;;;28.59;41.48
32642;BME280;19323;56.072;9.698;2022-10-04T16:54:09;100742.81;;;28.58;41.40
32642;BME280;19323;56.072;9.698;2022-10-04T17:10:57;100669.75;;;28.52;41.45
32642;BME280;19323;56.072;9.698;2022-10-04T17:13:34;100675.31;;;28.51;41.45
32642;BME280;19323;56.072;9.698;2022-10-04T17:16:16;100685.28;;;28.50;41.47
32642;BME280;19323;56.072;9.698;2022-10-04T17:22:02;100695.22;;;28.42;40.97
32642;BME280;19323;56.072;9.698;2022-10-04T17:30:16;100685.44;;;28.49;41.30
32642;BME280;19323;56.072;9.698;2022-10-04T17:33:17;100676.63;;;28.55;40.82
32642;BME280;19323;56.072;9.698;2022-10-04T17:41:54;100700.06;;;28.54;40.60
32642;BME280;19323;56.072;9.698;2022-10-04T17:44:55;100703.59;;;28.55;40.75
32642;BME280;19323;56.072;9.698;2022-10-04T17:47:39;100704.78;;;28.52;40.73
32642;BME280;19323;56.072;9.698;2022-10-04T17:50:45;100687.41;;;28.55;40.73
32642;BME280;19323;56.072;9.698;2022-10-04T17:53:34;100686.63;;;28.46;41.04
32642;BME280;19323;56.072;9.698;2022-10-04T17:56:34;100686.59;;;28.54;40.87
32642;BME280;19323;56.072;9.698;2022-10-04T17:59:09;100702.47;;;28.49;40.96
32642;BME280;19323;56.072;9.698;2022-10-04T18:01:47;100689.16;;;28.48;41.00
32642;BME280;19323;56.072;9.698;2022-10-04T18:04:23;100700.06;;;28.54;40.95
32642;BME280;19323;56.072;9.698;2022-10-04T18:09:55;100708.16;;;28.54;40.57
32642;BME280;19323;56.072;9.698;2022-10-04T18:20:34;100695.22;;;28.50;41.24
32642;BME280;19323;56.072;9.698;2022-10-04T18:23:23;100688.56;;;28.61;40.89
32642;BME280;19323;56.072;9.698;2022-10-04T18:25:55;100681.75;;;28.50;40.97
32642;BME280;19323;56.072;9.698;2022-10-04T18:28:22;100678.38;;;28.48;41.06
32642;BME280;19323;56.072;9.698;2022-10-04T18:30:57;100668.22;;;28.58;40.70
32642;BME280;19323;56.072;9.698;2022-10-04T18:33:29;100665.88;;;28.55;41.24
32642;BME280;19323;56.072;9.698;2022-10-04T18:36:16;100673.59;;;28.58;40.70
32642;BME280;19323;56.072;9.698;2022-10-04T18:38:47;100668.09;;;28.51;40.99
32642;BME280;19323;56.072;9.698;2022-10-04T18:41:23;100670.31;;;28.48;40.98
32642;BME280;19323;56.072;9.698;2022-10-04T18:44:14;100662.34;;;28.54;40.80
32642;BME280;19323;56.072;9.698;2022-10-04T18:46:44;100670.41;;;28.54;40.95
32642;BME280;19323;56.072;9.698;2022-10-04T18:49:19;100669.22;;;28.57;41.00
32642;BME280;19323;56.072;9.698;2022-10-04T18:57:46;100659.75;;;28.61;40.44
32642;BME280;19323;56.072;9.698;2022-10-04T19:00:53;100649.53;;;28.57;40.99
32642;BME280;19323;56.072;9.698;2022-10-04T19:03:56;100660.78;;;28.60;40.90
32642;BME280;19323;56.072;9.698;2022-10-04T19:06:28;100654.25;;;28.54;41.05
32642;BME280;19323;56.072;9.698;2022-10-04T19:11:50;100627.13;;;28.56;40.98
32642;BME280;19323;56.072;9.698;2022-10-04T19:14:31;100634.00;;;28.59;41.25
32642;BME280;19323;56.072;9.698;2022-10-04T19:17:13;100653.72;;;28.59;41.06
32642;BME280;19323;56.072;9.698;2022-10-04T19:22:18;100618.94;;;28.49;41.29
32642;BME280;19323;56.072;9.698;2022-10-04T19:25:23;100599.66;;;28.61;40.86
32642;BME280;19323;56.072;9.698;2022-10-04T19:28:00;100605.88;;;28.61;41.23
32642;BME280;19323;56.072;9.698;2022-10-04T19:33:24;100616.63;;;28.61;41.23
32642;BME280;19323;56.072;9.698;2022-10-04T19:44:16;100596.75;;;28.62;40.91
32642;BME280;19323;56.072;9.698;2022-10-04T19:49:44;100585.78;;;28.64;40.82
32642;BME280;19323;56.072;9.698;2022-10-04T19:54:57;100585.97;;;28.62;41.08
32642;BME280;19323;56.072;9.698;2022-10-04T19:57:36;100585.78;;;28.64;41.14
32642;BME280;19323;56.072;9.698;2022-10-04T20:00:17;100575.47;;;28.52;41.49
32642;BME280;19323;56.072;9.698;2022-10-04T20:02:45;100571.28;;;28.50;41.36
32642;BME280;19323;56.072;9.698;2022-10-04T20:05:19;100563.56;;;28.62;41.33
32642;BME280;19323;56.072;9.698;2022-10-04T20:07:57;100564.63;;;28.61;41.22
32642;BME280;19323;56.072;9.698;2022-10-04T20:10:38;100548.53;;;28.52;41.27
32642;BME280;19323;56.072;9.698;2022-10-04T20:13:25;100569.44;;;28.65;40.96
32642;BME280;19323;56.072;9.698;2022-10-04T20:15:53;100559.28;;;28.52;41.12
32642;BME280;19323;56.072;9.698;2022-10-04T20:26:06;100560.22;;;28.60;41.23
32642;BME280;19323;56.072;9.698;2022-10-04T20:28:41;100557.91;;;28.57;41.12
32642;BME280;19323;56.072;9.698;2022-10-04T20:31:10;100551.50;;;28.58;41.05
32642;BME280;19323;56.072;9.698;2022-10-04T20:34:32;100547.34;;;28.70;40.89
32642;BME280;19323;56.072;9.698;2022-10-04T20:36:58;100548.63;;;28.59;41.19
32642;BME280;19323;56.072;9.698;2022-10-04T20:42:13;100539.72;;;28.59;41.24
32642;BME280;19323;56.072;9.698;2022-10-04T20:45:00;100542.84;;;28.62;41.14
32642;BME280;19323;56.072;9.698;2022-10-04T20:47:38;100540.38;;;28.61;41.22
32642;BME280;19323;56.072;9.698;2022-10-04T20:52:42;100536.06;;;28.66;40.93
32642;BME280;19323;56.072;9.698;2022-10-04T20:55:19;100543.81;;;28.69;41.01
32642;BME280;19323;56.072;9.698;2022-10-04T20:57:46;100533.94;;;28.62;40.91
32642;BME280;19323;56.072;9.698;2022-10-04T21:00:19;100526.81;;;28.69;40.54
32642;BME280;19323;56.072;9.698;2022-10-04T21:03:06;100518.34;;;28.72;40.85
32642;BME280;19323;56.072;9.698;2022-10-04T21:05:33;100523.16;;;28.62;40.78
32642;BME280;19323;56.072;9.698;2022-10-04T21:08:13;100522.25;;;28.69;40.81
32642;BME280;19323;56.072;9.698;2022-10-04T21:11:01;100521.88;;;28.72;40.40
32642;BME280;19323;56.072;9.698;2022-10-04T21:13:50;100516.84;;;28.69;40.43
32642;BME280;19323;56.072;9.698;2022-10-04T21:16:40;100530.78;;;28.73;40.70
32642;BME280;19323;56.072;9.698;2022-10-04T21:19:39;100528.28;;;28.71;40.38
32642;BME280;19323;56.072;9.698;2022-10-04T21:27:11;100526.50;;;28.64;40.54
32642;BME280;19323;56.072;9.698;2022-10-04T21:29:49;100513.41;;;28.61;40.50
32642;BME280;19323;56.072;9.698;2022-10-04T21:32:19;100509.69;;;28.62;40.61
32642;BME280;19323;56.072;9.698;2022-10-04T21:34:46;100510.72;;;28.61;40.64
32642;BME280;19323;56.072;9.698;2022-10-04T21:37:19;100503.66;;;28.60;40.59
32642;BME280;19323;56.072;9.698;2022-10-04T21:39:46;100493.91;;;28.59;40.42
32642;BME280;19323;56.072;9.698;2022-10-04T21:42:13;100500.78;;;28.61;40.33
32642;BME280;19323;56.072;9.698;2022-10-04T21:44:39;100492.03;;;28.59;40.41
32642;BME280;19323;56.072;9.698;2022-10-04T21:47:06;100492.69;;;28.61;40.31
32642;BME280;19323;56.072;9.698;2022-10-04T21:49:33;100495.22;;;28.63;40.46
32642;BME280;19323;56.072;9.698;2022-10-04T21:52:00;100493.50;;;28.62;40.27